sensor_id;sensor_type;location;lat;lon;timestamp;P1;durP1;ratioP1;P2;durP2;ratioP2
48596;SDS011;34382;43.160;24.148;2023-08-08T00:18:08;5.75;;;2.45;;
48596;SDS011;34382;43.160;24.148;2023-08-08T00:21:14;5.47;;;2.28;;
48596;SDS011;34382;43.160;24.148;2023-08-08T00:22:46;5.15;;;2.03;;
48596;SDS011;34382;43.160;24.148;2023-08-08T00:24:18;6.35;;;2.30;;
48596;SDS011;34382;43.160;24.148;2023-08-08T00:25:51;5.88;;;2.38;;
48596;SDS011;34382;43.160;24.148;2023-08-08T00:27:24;5.82;;;2.40;;
48596;SDS011;34382;43.160;24.148;2023-08-08T00:28:56;5.93;;;2.40;;
48596;SDS011;34382;43.160;24.148;2023-08-08T00:30:28;4.80;;;2.30;;
48596;SDS011;34382;43.160;24.148;2023-08-08T00:32:01;4.78;;;2.08;;
48596;SDS011;34382;43.160;24.148;2023-08-08T00:33:33;4.43;;;2.13;;
48596;SDS011;34382;43.160;24.148;2023-08-08T00:35:05;7.18;;;2.45;;
48596;SDS011;34382;43.160;24.148;2023-08-08T00:36:37;6.30;;;2.50;;
48596;SDS011;34382;43.160;24.148;2023-08-08T00:38:09;5.35;;;2.42;;
48596;SDS011;34382;43.160;24.148;2023-08-08T00:39:42;6.90;;;2.50;;
48596;SDS011;34382;43.160;24.148;2023-08-08T00:41:17;5.53;;;2.40;;
48596;SDS011;34382;43.160;24.148;2023-08-08T00:42:49;5.85;;;2.35;;
48596;SDS011;34382;43.160;24.148;2023-08-08T00:44:22;5.53;;;2.40;;
48596;SDS011;34382;43.160;24.148;2023-08-08T00:45:54;6.07;;;2.33;;
48596;SDS011;34382;43.160;24.148;2023-08-08T00:47:26;6.40;;;2.53;;
48596;SDS011;34382;43.160;24.148;2023-08-08T00:48:59;6.13;;;2.40;;
48596;SDS011;34382;43.160;24.148;2023-08-08T00:50:31;5.90;;;2.28;;
48596;SDS011;34382;43.160;24.148;2023-08-08T00:52:04;7.75;;;2.63;;
48596;SDS011;34382;43.160;24.148;2023-08-08T00:53:38;5.85;;;2.50;;
48596;SDS011;34382;43.160;24.148;2023-08-08T01:31:10;5.82;;;2.45;;
48596;SDS011;34382;43.160;24.148;2023-08-08T01:32:43;8.20;;;2.90;;
48596;SDS011;34382;43.160;24.148;2023-08-08T01:34:15;6.03;;;2.58;;
48596;SDS011;34382;43.160;24.148;2023-08-08T01:35:50;6.40;;;2.40;;
48596;SDS011;34382;43.160;24.148;2023-08-08T01:37:50;6.85;;;3.15;;
48596;SDS011;34382;43.160;24.148;2023-08-08T01:39:28;4.70;;;2.28;;
48596;SDS011;34382;43.160;24.148;2023-08-08T01:41:02;5.57;;;2.25;;
48596;SDS011;34382;43.160;24.148;2023-08-08T01:42:36;5.72;;;2.58;;
48596;SDS011;34382;43.160;24.148;2023-08-08T01:44:09;6.22;;;3.00;;
48596;SDS011;34382;43.160;24.148;2023-08-08T01:45:41;7.03;;;2.50;;
48596;SDS011;34382;43.160;24.148;2023-08-08T01:47:15;7.05;;;2.80;;
48596;SDS011;34382;43.160;24.148;2023-08-08T01:48:47;5.65;;;2.30;;
48596;SDS011;34382;43.160;24.148;2023-08-08T01:50:19;7.22;;;2.45;;
48596;SDS011;34382;43.160;24.148;2023-08-08T02:04:25;7.65;;;2.78;;
48596;SDS011;34382;43.160;24.148;2023-08-08T02:05:57;8.05;;;2.70;;
48596;SDS011;34382;43.160;24.148;2023-08-08T02:07:29;5.88;;;2.42;;
48596;SDS011;34382;43.160;24.148;2023-08-08T02:09:02;5.40;;;2.20;;
48596;SDS011;34382;43.160;24.148;2023-08-08T02:10:34;6.85;;;2.50;;
48596;SDS011;34382;43.160;24.148;2023-08-08T02:12:07;7.25;;;2.80;;
48596;SDS011;34382;43.160;24.148;2023-08-08T02:13:41;4.57;;;2.30;;
48596;SDS011;34382;43.160;24.148;2023-08-08T02:15:13;5.85;;;2.35;;
48596;SDS011;34382;43.160;24.148;2023-08-08T02:16:45;8.63;;;2.80;;
48596;SDS011;34382;43.160;24.148;2023-08-08T02:18:18;6.78;;;2.70;;
48596;SDS011;34382;43.160;24.148;2023-08-08T02:19:50;6.53;;;2.58;;
48596;SDS011;34382;43.160;24.148;2023-08-08T02:21:22;7.00;;;2.80;;
48596;SDS011;34382;43.160;24.148;2023-08-08T02:22:54;5.82;;;2.70;;
48596;SDS011;34382;43.160;24.148;2023-08-08T02:24:27;7.85;;;2.83;;
48596;SDS011;34382;43.160;24.148;2023-08-08T02:25:59;6.75;;;2.90;;
48596;SDS011;34382;43.160;24.148;2023-08-08T02:27:31;7.47;;;2.67;;
48596;SDS011;34382;43.160;24.148;2023-08-08T02:29:03;6.57;;;2.90;;
48596;SDS011;34382;43.160;24.148;2023-08-08T02:30:35;6.20;;;2.42;;
48596;SDS011;34382;43.160;24.148;2023-08-08T02:32:08;6.78;;;2.75;;
48596;SDS011;34382;43.160;24.148;2023-08-08T02:33:40;7.72;;;2.70;;
48596;SDS011;34382;43.160;24.148;2023-08-08T02:52:54;8.57;;;2.40;;
48596;SDS011;34382;43.160;24.148;2023-08-08T02:54:27;5.70;;;2.53;;
48596;SDS011;34382;43.160;24.148;2023-08-08T02:56:00;7.88;;;2.83;;
48596;SDS011;34382;43.160;24.148;2023-08-08T02:57:32;7.22;;;2.78;;
48596;SDS011;34382;43.160;24.148;2023-08-08T02:59:04;10.32;;;3.13;;
48596;SDS011;34382;43.160;24.148;2023-08-08T03:00:36;9.43;;;2.78;;
48596;SDS011;34382;43.160;24.148;2023-08-08T03:02:09;7.22;;;2.63;;
48596;SDS011;34382;43.160;24.148;2023-08-08T03:03:41;6.97;;;2.55;;
48596;SDS011;34382;43.160;24.148;2023-08-08T03:05:14;5.63;;;2.47;;
48596;SDS011;34382;43.160;24.148;2023-08-08T03:06:46;7.72;;;2.88;;
48596;SDS011;34382;43.160;24.148;2023-08-08T03:08:18;7.13;;;2.60;;
48596;SDS011;34382;43.160;24.148;2023-08-08T03:09:50;5.65;;;2.42;;
48596;SDS011;34382;43.160;24.148;2023-08-08T03:11:22;7.50;;;2.42;;
48596;SDS011;34382;43.160;24.148;2023-08-08T03:12:55;5.80;;;2.53;;
48596;SDS011;34382;43.160;24.148;2023-08-08T03:14:27;7.03;;;3.05;;
48596;SDS011;34382;43.160;24.148;2023-08-08T03:15:59;5.70;;;2.58;;
48596;SDS011;34382;43.160;24.148;2023-08-08T03:17:32;7.97;;;2.85;;
48596;SDS011;34382;43.160;24.148;2023-08-08T03:19:05;8.02;;;2.60;;
48596;SDS011;34382;43.160;24.148;2023-08-08T03:20:37;6.50;;;2.80;;
48596;SDS011;34382;43.160;24.148;2023-08-08T03:22:09;6.72;;;3.03;;
48596;SDS011;34382;43.160;24.148;2023-08-08T03:23:42;6.22;;;2.42;;
48596;SDS011;34382;43.160;24.148;2023-08-08T03:27:02;8.90;;;2.90;;
48596;SDS011;34382;43.160;24.148;2023-08-08T03:28:34;6.00;;;2.50;;
48596;SDS011;34382;43.160;24.148;2023-08-08T03:30:06;6.10;;;2.63;;
48596;SDS011;34382;43.160;24.148;2023-08-08T03:31:39;8.65;;;2.85;;
48596;SDS011;34382;43.160;24.148;2023-08-08T03:33:11;6.90;;;2.70;;
48596;SDS011;34382;43.160;24.148;2023-08-08T03:34:44;6.00;;;2.40;;
48596;SDS011;34382;43.160;24.148;2023-08-08T03:36:16;6.35;;;2.67;;
48596;SDS011;34382;43.160;24.148;2023-08-08T03:37:48;6.82;;;2.50;;
48596;SDS011;34382;43.160;24.148;2023-08-08T03:39:21;6.57;;;2.38;;
48596;SDS011;34382;43.160;24.148;2023-08-08T03:40:54;8.27;;;2.80;;
48596;SDS011;34382;43.160;24.148;2023-08-08T03:42:26;6.07;;;2.55;;
48596;SDS011;34382;43.160;24.148;2023-08-08T03:43:58;7.20;;;2.83;;
48596;SDS011;34382;43.160;24.148;2023-08-08T03:45:30;7.32;;;2.83;;
48596;SDS011;34382;43.160;24.148;2023-08-08T03:47:02;6.30;;;2.53;;
48596;SDS011;34382;43.160;24.148;2023-08-08T04:20:55;7.63;;;2.78;;
48596;SDS011;34382;43.160;24.148;2023-08-08T04:22:27;6.80;;;2.50;;
48596;SDS011;34382;43.160;24.148;2023-08-08T04:23:59;6.53;;;2.50;;
48596;SDS011;34382;43.160;24.148;2023-08-08T04:25:32;7.10;;;2.40;;
48596;SDS011;34382;43.160;24.148;2023-08-08T04:27:04;6.32;;;2.65;;
48596;SDS011;34382;43.160;24.148;2023-08-08T04:28:36;6.55;;;2.30;;
48596;SDS011;34382;43.160;24.148;2023-08-08T04:30:09;7.70;;;2.78;;
48596;SDS011;34382;43.160;24.148;2023-08-08T04:31:41;7.20;;;2.65;;
48596;SDS011;34382;43.160;24.148;2023-08-08T04:33:13;7.25;;;2.60;;
48596;SDS011;34382;43.160;24.148;2023-08-08T04:36:19;6.78;;;2.83;;
48596;SDS011;34382;43.160;24.148;2023-08-08T04:37:51;5.70;;;2.60;;
48596;SDS011;34382;43.160;24.148;2023-08-08T04:39:23;6.95;;;2.65;;
48596;SDS011;34382;43.160;24.148;2023-08-08T04:40:55;6.07;;;2.50;;
48596;SDS011;34382;43.160;24.148;2023-08-08T04:42:27;6.68;;;2.60;;
48596;SDS011;34382;43.160;24.148;2023-08-08T04:44:00;8.77;;;2.85;;
48596;SDS011;34382;43.160;24.148;2023-08-08T04:45:32;7.68;;;2.50;;
48596;SDS011;34382;43.160;24.148;2023-08-08T04:47:05;6.65;;;2.90;;
48596;SDS011;34382;43.160;24.148;2023-08-08T04:48:37;8.95;;;2.80;;
48596;SDS011;34382;43.160;24.148;2023-08-08T04:50:10;7.93;;;2.53;;
48596;SDS011;34382;43.160;24.148;2023-08-08T04:51:42;6.45;;;2.42;;
48596;SDS011;34382;43.160;24.148;2023-08-08T04:53:14;6.35;;;2.83;;
48596;SDS011;34382;43.160;24.148;2023-08-08T04:54:47;8.65;;;2.80;;
48596;SDS011;34382;43.160;24.148;2023-08-08T04:56:19;6.70;;;2.70;;
48596;SDS011;34382;43.160;24.148;2023-08-08T04:57:51;5.57;;;2.55;;
48596;SDS011;34382;43.160;24.148;2023-08-08T04:59:23;5.63;;;2.35;;
48596;SDS011;34382;43.160;24.148;2023-08-08T05:00:58;5.82;;;2.50;;
48596;SDS011;34382;43.160;24.148;2023-08-08T05:02:31;5.88;;;2.17;;
48596;SDS011;34382;43.160;24.148;2023-08-08T05:04:03;4.93;;;1.98;;
48596;SDS011;34382;43.160;24.148;2023-08-08T05:05:36;4.35;;;1.92;;
48596;SDS011;34382;43.160;24.148;2023-08-08T05:07:08;7.55;;;2.13;;
48596;SDS011;34382;43.160;24.148;2023-08-08T05:08:40;5.43;;;2.47;;
48596;SDS011;34382;43.160;24.148;2023-08-08T05:10:13;8.55;;;2.30;;
48596;SDS011;34382;43.160;24.148;2023-08-08T05:11:45;5.35;;;2.20;;
48596;SDS011;34382;43.160;24.148;2023-08-08T05:13:18;6.50;;;2.17;;
48596;SDS011;34382;43.160;24.148;2023-08-08T05:14:50;5.70;;;2.03;;
48596;SDS011;34382;43.160;24.148;2023-08-08T05:16:22;5.18;;;1.90;;
48596;SDS011;34382;43.160;24.148;2023-08-08T05:17:56;4.22;;;1.80;;
48596;SDS011;34382;43.160;24.148;2023-08-08T05:19:29;6.05;;;1.80;;
48596;SDS011;34382;43.160;24.148;2023-08-08T05:21:01;5.25;;;2.00;;
48596;SDS011;34382;43.160;24.148;2023-08-08T05:22:33;4.43;;;1.98;;
48596;SDS011;34382;43.160;24.148;2023-08-08T05:24:06;4.10;;;1.80;;
48596;SDS011;34382;43.160;24.148;2023-08-08T05:25:38;4.10;;;2.00;;
48596;SDS011;34382;43.160;24.148;2023-08-08T05:27:10;4.75;;;2.10;;
48596;SDS011;34382;43.160;24.148;2023-08-08T05:28:43;4.78;;;2.05;;
48596;SDS011;34382;43.160;24.148;2023-08-08T05:30:15;3.65;;;1.70;;
48596;SDS011;34382;43.160;24.148;2023-08-08T05:31:47;4.88;;;1.98;;
48596;SDS011;34382;43.160;24.148;2023-08-08T05:33:19;5.10;;;1.92;;
48596;SDS011;34382;43.160;24.148;2023-08-08T05:34:52;3.97;;;1.90;;
48596;SDS011;34382;43.160;24.148;2023-08-08T05:36:24;3.95;;;1.70;;
48596;SDS011;34382;43.160;24.148;2023-08-08T05:37:56;5.05;;;2.00;;
48596;SDS011;34382;43.160;24.148;2023-08-08T05:39:29;7.03;;;1.95;;
48596;SDS011;34382;43.160;24.148;2023-08-08T05:41:02;3.20;;;1.67;;
48596;SDS011;34382;43.160;24.148;2023-08-08T05:42:34;5.70;;;2.00;;
48596;SDS011;34382;43.160;24.148;2023-08-08T05:44:07;4.32;;;1.95;;
48596;SDS011;34382;43.160;24.148;2023-08-08T05:45:39;6.10;;;1.98;;
48596;SDS011;34382;43.160;24.148;2023-08-08T05:47:11;4.40;;;2.07;;
48596;SDS011;34382;43.160;24.148;2023-08-08T05:48:46;5.15;;;2.20;;
48596;SDS011;34382;43.160;24.148;2023-08-08T05:50:19;6.70;;;2.15;;
48596;SDS011;34382;43.160;24.148;2023-08-08T05:51:51;5.15;;;2.13;;
48596;SDS011;34382;43.160;24.148;2023-08-08T05:53:23;7.68;;;2.40;;
48596;SDS011;34382;43.160;24.148;2023-08-08T05:54:55;4.72;;;2.15;;
48596;SDS011;34382;43.160;24.148;2023-08-08T05:56:33;3.85;;;2.00;;
48596;SDS011;34382;43.160;24.148;2023-08-08T05:58:08;6.88;;;2.20;;
48596;SDS011;34382;43.160;24.148;2023-08-08T05:59:40;5.88;;;2.00;;
48596;SDS011;34382;43.160;24.148;2023-08-08T06:01:12;4.07;;;1.88;;
48596;SDS011;34382;43.160;24.148;2023-08-08T06:02:45;5.68;;;1.90;;
48596;SDS011;34382;43.160;24.148;2023-08-08T06:04:17;5.38;;;2.25;;
48596;SDS011;34382;43.160;24.148;2023-08-08T06:09:07;5.55;;;2.25;;
48596;SDS011;34382;43.160;24.148;2023-08-08T06:10:40;4.78;;;1.95;;
48596;SDS011;34382;43.160;24.148;2023-08-08T06:12:12;4.45;;;1.70;;
48596;SDS011;34382;43.160;24.148;2023-08-08T06:13:45;4.18;;;1.90;;
48596;SDS011;34382;43.160;24.148;2023-08-08T06:15:17;4.22;;;2.00;;
48596;SDS011;34382;43.160;24.148;2023-08-08T06:16:50;3.00;;;1.67;;
48596;SDS011;34382;43.160;24.148;2023-08-08T06:18:22;3.50;;;1.70;;
48596;SDS011;34382;43.160;24.148;2023-08-08T06:19:54;6.15;;;1.80;;
48596;SDS011;34382;43.160;24.148;2023-08-08T06:21:28;3.65;;;1.67;;
48596;SDS011;34382;43.160;24.148;2023-08-08T06:23:01;2.97;;;1.45;;
48596;SDS011;34382;43.160;24.148;2023-08-08T06:24:33;5.40;;;1.80;;
48596;SDS011;34382;43.160;24.148;2023-08-08T06:26:05;1.83;;;1.30;;
48596;SDS011;34382;43.160;24.148;2023-08-08T06:27:38;3.25;;;1.50;;
48596;SDS011;34382;43.160;24.148;2023-08-08T06:29:12;3.00;;;1.50;;
48596;SDS011;34382;43.160;24.148;2023-08-08T06:32:18;3.85;;;1.70;;
48596;SDS011;34382;43.160;24.148;2023-08-08T06:37:02;4.07;;;1.40;;
48596;SDS011;34382;43.160;24.148;2023-08-08T06:38:34;2.97;;;1.30;;
48596;SDS011;34382;43.160;24.148;2023-08-08T06:40:07;2.30;;;1.20;;
48596;SDS011;34382;43.160;24.148;2023-08-08T06:41:40;3.15;;;1.50;;
48596;SDS011;34382;43.160;24.148;2023-08-08T06:43:12;3.57;;;1.63;;
48596;SDS011;34382;43.160;24.148;2023-08-08T06:44:45;4.45;;;1.33;;
48596;SDS011;34382;43.160;24.148;2023-08-08T06:46:17;4.45;;;1.60;;
48596;SDS011;34382;43.160;24.148;2023-08-08T06:47:52;3.45;;;1.40;;
48596;SDS011;34382;43.160;24.148;2023-08-08T06:49:24;2.08;;;1.52;;
48596;SDS011;34382;43.160;24.148;2023-08-08T06:50:56;3.35;;;1.52;;
48596;SDS011;34382;43.160;24.148;2023-08-08T06:52:29;2.58;;;1.23;;
48596;SDS011;34382;43.160;24.148;2023-08-08T06:54:01;2.45;;;1.25;;
48596;SDS011;34382;43.160;24.148;2023-08-08T06:55:33;2.53;;;1.40;;
48596;SDS011;34382;43.160;24.148;2023-08-08T06:57:06;3.22;;;1.20;;
48596;SDS011;34382;43.160;24.148;2023-08-08T06:58:38;3.53;;;1.60;;
48596;SDS011;34382;43.160;24.148;2023-08-08T07:00:11;2.47;;;1.20;;
48596;SDS011;34382;43.160;24.148;2023-08-08T07:01:45;1.63;;;1.20;;
48596;SDS011;34382;43.160;24.148;2023-08-08T07:03:17;3.40;;;1.42;;
48596;SDS011;34382;43.160;24.148;2023-08-08T07:04:49;2.28;;;1.20;;
48596;SDS011;34382;43.160;24.148;2023-08-08T07:06:22;2.42;;;1.30;;
48596;SDS011;34382;43.160;24.148;2023-08-08T07:07:54;1.92;;;1.17;;
48596;SDS011;34382;43.160;24.148;2023-08-08T07:09:26;2.65;;;1.52;;
48596;SDS011;34382;43.160;24.148;2023-08-08T07:10:59;4.10;;;1.50;;
48596;SDS011;34382;43.160;24.148;2023-08-08T07:12:34;2.05;;;1.25;;
48596;SDS011;34382;43.160;24.148;2023-08-08T07:14:06;1.75;;;1.25;;
48596;SDS011;34382;43.160;24.148;2023-08-08T07:15:38;2.60;;;1.33;;
48596;SDS011;34382;43.160;24.148;2023-08-08T07:17:10;2.90;;;1.50;;
48596;SDS011;34382;43.160;24.148;2023-08-08T07:18:43;4.32;;;1.42;;
48596;SDS011;34382;43.160;24.148;2023-08-08T07:20:16;4.13;;;1.50;;
48596;SDS011;34382;43.160;24.148;2023-08-08T07:21:49;3.80;;;1.60;;
48596;SDS011;34382;43.160;24.148;2023-08-08T07:23:22;2.58;;;1.30;;
48596;SDS011;34382;43.160;24.148;2023-08-08T07:24:54;3.28;;;1.30;;
48596;SDS011;34382;43.160;24.148;2023-08-08T07:26:27;2.83;;;1.30;;
48596;SDS011;34382;43.160;24.148;2023-08-08T07:27:59;4.15;;;1.40;;
48596;SDS011;34382;43.160;24.148;2023-08-08T07:29:31;2.95;;;1.48;;
48596;SDS011;34382;43.160;24.148;2023-08-08T07:31:03;1.65;;;1.30;;
48596;SDS011;34382;43.160;24.148;2023-08-08T07:32:36;2.58;;;1.48;;
48596;SDS011;34382;43.160;24.148;2023-08-08T07:34:08;2.97;;;1.45;;
48596;SDS011;34382;43.160;24.148;2023-08-08T07:35:40;2.35;;;1.35;;
48596;SDS011;34382;43.160;24.148;2023-08-08T07:37:13;2.57;;;1.20;;
48596;SDS011;34382;43.160;24.148;2023-08-08T07:40:18;2.58;;;1.55;;
48596;SDS011;34382;43.160;24.148;2023-08-08T07:41:51;3.58;;;1.80;;
48596;SDS011;34382;43.160;24.148;2023-08-08T07:43:24;1.88;;;1.27;;
48596;SDS011;34382;43.160;24.148;2023-08-08T07:44:57;2.13;;;1.13;;
48596;SDS011;34382;43.160;24.148;2023-08-08T07:46:29;2.25;;;1.30;;
48596;SDS011;34382;43.160;24.148;2023-08-08T07:48:01;2.22;;;1.17;;
48596;SDS011;34382;43.160;24.148;2023-08-08T07:49:34;4.70;;;1.73;;
48596;SDS011;34382;43.160;24.148;2023-08-08T07:51:06;2.90;;;1.35;;
48596;SDS011;34382;43.160;24.148;2023-08-08T07:52:38;3.22;;;1.40;;
48596;SDS011;34382;43.160;24.148;2023-08-08T07:54:11;2.70;;;1.30;;
48596;SDS011;34382;43.160;24.148;2023-08-08T07:55:43;1.63;;;1.27;;
48596;SDS011;34382;43.160;24.148;2023-08-08T07:57:16;4.68;;;1.83;;
48596;SDS011;34382;43.160;24.148;2023-08-08T07:58:48;4.15;;;1.50;;
48596;SDS011;34382;43.160;24.148;2023-08-08T08:00:20;3.38;;;1.30;;
48596;SDS011;34382;43.160;24.148;2023-08-08T08:01:53;3.08;;;1.50;;
48596;SDS011;34382;43.160;24.148;2023-08-08T08:03:26;2.78;;;1.30;;
48596;SDS011;34382;43.160;24.148;2023-08-08T08:06:33;4.88;;;1.80;;
48596;SDS011;34382;43.160;24.148;2023-08-08T08:08:19;2.67;;;1.30;;
48596;SDS011;34382;43.160;24.148;2023-08-08T08:09:53;2.80;;;1.20;;
48596;SDS011;34382;43.160;24.148;2023-08-08T08:11:25;2.45;;;1.48;;
48596;SDS011;34382;43.160;24.148;2023-08-08T08:12:57;1.27;;;1.17;;
48596;SDS011;34382;43.160;24.148;2023-08-08T08:14:30;2.35;;;1.50;;
48596;SDS011;34382;43.160;24.148;2023-08-08T08:16:02;3.60;;;1.63;;
48596;SDS011;34382;43.160;24.148;2023-08-08T08:17:35;6.20;;;1.90;;
48596;SDS011;34382;43.160;24.148;2023-08-08T08:19:08;3.75;;;1.60;;
48596;SDS011;34382;43.160;24.148;2023-08-08T08:22:20;2.80;;;1.42;;
48596;SDS011;34382;43.160;24.148;2023-08-08T08:27:08;3.65;;;1.52;;
48596;SDS011;34382;43.160;24.148;2023-08-08T08:28:40;1.80;;;1.20;;
48596;SDS011;34382;43.160;24.148;2023-08-08T08:30:13;3.28;;;1.50;;
48596;SDS011;34382;43.160;24.148;2023-08-08T08:31:47;4.00;;;1.60;;
48596;SDS011;34382;43.160;24.148;2023-08-08T08:33:19;2.08;;;1.33;;
48596;SDS011;34382;43.160;24.148;2023-08-08T08:34:52;4.22;;;1.30;;
48596;SDS011;34382;43.160;24.148;2023-08-08T08:36:24;3.22;;;1.50;;
48596;SDS011;34382;43.160;24.148;2023-08-08T08:37:58;3.65;;;1.27;;
48596;SDS011;34382;43.160;24.148;2023-08-08T08:39:30;3.47;;;1.40;;
48596;SDS011;34382;43.160;24.148;2023-08-08T08:41:03;2.08;;;1.30;;
48596;SDS011;34382;43.160;24.148;2023-08-08T08:42:35;3.85;;;1.35;;
48596;SDS011;34382;43.160;24.148;2023-08-08T08:44:08;2.17;;;1.20;;
48596;SDS011;34382;43.160;24.148;2023-08-08T08:45:41;1.95;;;1.20;;
48596;SDS011;34382;43.160;24.148;2023-08-08T08:47:17;4.88;;;1.50;;
48596;SDS011;34382;43.160;24.148;2023-08-08T08:48:52;2.63;;;1.45;;
48596;SDS011;34382;43.160;24.148;2023-08-08T08:50:36;3.35;;;1.50;;
48596;SDS011;34382;43.160;24.148;2023-08-08T08:52:49;3.08;;;1.48;;
48596;SDS011;34382;43.160;24.148;2023-08-08T08:54:22;3.20;;;1.40;;
48596;SDS011;34382;43.160;24.148;2023-08-08T08:55:56;2.95;;;1.50;;
48596;SDS011;34382;43.160;24.148;2023-08-08T08:57:32;3.85;;;1.60;;
48596;SDS011;34382;43.160;24.148;2023-08-08T08:59:05;2.58;;;1.40;;
48596;SDS011;34382;43.160;24.148;2023-08-08T09:00:37;4.75;;;1.60;;
48596;SDS011;34382;43.160;24.148;2023-08-08T09:02:11;2.38;;;1.17;;
48596;SDS011;34382;43.160;24.148;2023-08-08T09:17:52;4.28;;;1.42;;
48596;SDS011;34382;43.160;24.148;2023-08-08T09:19:24;2.58;;;1.00;;
48596;SDS011;34382;43.160;24.148;2023-08-08T09:20:57;2.63;;;1.40;;
48596;SDS011;34382;43.160;24.148;2023-08-08T09:22:30;2.70;;;1.10;;
48596;SDS011;34382;43.160;24.148;2023-08-08T09:24:02;2.85;;;1.17;;
48596;SDS011;34382;43.160;24.148;2023-08-08T09:25:34;3.10;;;1.30;;
48596;SDS011;34382;43.160;24.148;2023-08-08T09:27:07;1.65;;;1.20;;
48596;SDS011;34382;43.160;24.148;2023-08-08T09:28:40;1.73;;;1.25;;
48596;SDS011;34382;43.160;24.148;2023-08-08T09:30:12;1.83;;;1.10;;
48596;SDS011;34382;43.160;24.148;2023-08-08T09:31:46;2.63;;;1.05;;
48596;SDS011;34382;43.160;24.148;2023-08-08T09:33:19;2.10;;;1.00;;
48596;SDS011;34382;43.160;24.148;2023-08-08T09:34:52;2.63;;;1.30;;
48596;SDS011;34382;43.160;24.148;2023-08-08T09:36:24;2.47;;;1.35;;
48596;SDS011;34382;43.160;24.148;2023-08-08T09:37:57;2.97;;;1.50;;
48596;SDS011;34382;43.160;24.148;2023-08-08T09:39:29;3.03;;;1.60;;
48596;SDS011;34382;43.160;24.148;2023-08-08T09:41:01;2.60;;;1.40;;
48596;SDS011;34382;43.160;24.148;2023-08-08T09:42:34;3.45;;;1.30;;
48596;SDS011;34382;43.160;24.148;2023-08-08T09:44:07;2.33;;;1.40;;
48596;SDS011;34382;43.160;24.148;2023-08-08T09:45:40;2.60;;;1.23;;
48596;SDS011;34382;43.160;24.148;2023-08-08T09:47:16;2.17;;;1.17;;
48596;SDS011;34382;43.160;24.148;2023-08-08T09:48:49;2.78;;;1.38;;
48596;SDS011;34382;43.160;24.148;2023-08-08T09:50:22;2.40;;;1.20;;
48596;SDS011;34382;43.160;24.148;2023-08-08T09:51:54;3.67;;;1.40;;
48596;SDS011;34382;43.160;24.148;2023-08-08T09:53:28;4.40;;;1.95;;
48596;SDS011;34382;43.160;24.148;2023-08-08T09:55:03;3.25;;;1.40;;
48596;SDS011;34382;43.160;24.148;2023-08-08T09:58:09;3.35;;;1.48;;
48596;SDS011;34382;43.160;24.148;2023-08-08T09:59:41;4.20;;;1.35;;
48596;SDS011;34382;43.160;24.148;2023-08-08T10:01:14;1.33;;;1.20;;
48596;SDS011;34382;43.160;24.148;2023-08-08T10:02:46;2.42;;;1.38;;
48596;SDS011;34382;43.160;24.148;2023-08-08T10:04:19;4.50;;;1.58;;
48596;SDS011;34382;43.160;24.148;2023-08-08T10:05:52;3.97;;;1.65;;
48596;SDS011;34382;43.160;24.148;2023-08-08T10:07:25;6.28;;;1.85;;
48596;SDS011;34382;43.160;24.148;2023-08-08T10:08:57;3.55;;;1.50;;
48596;SDS011;34382;43.160;24.148;2023-08-08T10:10:31;6.90;;;1.88;;
48596;SDS011;34382;43.160;24.148;2023-08-08T10:12:07;4.32;;;1.48;;
48596;SDS011;34382;43.160;24.148;2023-08-08T10:13:46;3.83;;;1.60;;
48596;SDS011;34382;43.160;24.148;2023-08-08T10:15:24;2.58;;;1.27;;
48596;SDS011;34382;43.160;24.148;2023-08-08T10:16:58;3.10;;;1.50;;
48596;SDS011;34382;43.160;24.148;2023-08-08T10:18:30;2.75;;;1.63;;
48596;SDS011;34382;43.160;24.148;2023-08-08T10:20:03;2.83;;;1.50;;
48596;SDS011;34382;43.160;24.148;2023-08-08T10:21:43;3.17;;;1.45;;
48596;SDS011;34382;43.160;24.148;2023-08-08T10:46:27;2.83;;;1.60;;
48596;SDS011;34382;43.160;24.148;2023-08-08T10:48:37;4.85;;;1.60;;
48596;SDS011;34382;43.160;24.148;2023-08-08T10:50:24;3.38;;;1.70;;
48596;SDS011;34382;43.160;24.148;2023-08-08T10:52:03;4.10;;;2.03;;
48596;SDS011;34382;43.160;24.148;2023-08-08T10:53:36;3.90;;;1.73;;
48596;SDS011;34382;43.160;24.148;2023-08-08T10:55:17;5.03;;;2.03;;
48596;SDS011;34382;43.160;24.148;2023-08-08T10:56:54;5.50;;;2.25;;
48596;SDS011;34382;43.160;24.148;2023-08-08T10:58:37;4.13;;;1.70;;
48596;SDS011;34382;43.160;24.148;2023-08-08T11:22:53;2.95;;;1.60;;
48596;SDS011;34382;43.160;24.148;2023-08-08T11:24:26;2.97;;;1.50;;
48596;SDS011;34382;43.160;24.148;2023-08-08T11:25:58;5.63;;;1.93;;
48596;SDS011;34382;43.160;24.148;2023-08-08T11:27:34;3.20;;;1.67;;
48596;SDS011;34382;43.160;24.148;2023-08-08T11:29:09;4.07;;;1.55;;
48596;SDS011;34382;43.160;24.148;2023-08-08T11:30:42;3.30;;;1.70;;
48596;SDS011;34382;43.160;24.148;2023-08-08T11:32:15;3.70;;;1.80;;
48596;SDS011;34382;43.160;24.148;2023-08-08T11:33:48;3.30;;;1.60;;
48596;SDS011;34382;43.160;24.148;2023-08-08T11:46:02;3.50;;;1.67;;
48596;SDS011;34382;43.160;24.148;2023-08-08T11:47:35;3.72;;;1.90;;
48596;SDS011;34382;43.160;24.148;2023-08-08T11:49:08;3.65;;;1.80;;
48596;SDS011;34382;43.160;24.148;2023-08-08T11:50:40;2.53;;;1.50;;
48596;SDS011;34382;43.160;24.148;2023-08-08T11:57:44;4.72;;;1.80;;
48596;SDS011;34382;43.160;24.148;2023-08-08T11:59:17;2.97;;;1.60;;
48596;SDS011;34382;43.160;24.148;2023-08-08T12:00:51;5.53;;;2.10;;
48596;SDS011;34382;43.160;24.148;2023-08-08T12:02:37;3.58;;;1.80;;
48596;SDS011;34382;43.160;24.148;2023-08-08T12:04:10;4.10;;;1.88;;
48596;SDS011;34382;43.160;24.148;2023-08-08T12:05:42;5.00;;;1.98;;
48596;SDS011;34382;43.160;24.148;2023-08-08T12:08:48;5.30;;;2.00;;
48596;SDS011;34382;43.160;24.148;2023-08-08T12:10:21;3.50;;;1.80;;
48596;SDS011;34382;43.160;24.148;2023-08-08T12:11:54;5.45;;;1.65;;
48596;SDS011;34382;43.160;24.148;2023-08-08T12:13:26;3.03;;;1.80;;
48596;SDS011;34382;43.160;24.148;2023-08-08T12:15:03;3.67;;;1.83;;
48596;SDS011;34382;43.160;24.148;2023-08-08T12:16:47;3.63;;;1.77;;
48596;SDS011;34382;43.160;24.148;2023-08-08T12:18:19;4.32;;;2.00;;
48596;SDS011;34382;43.160;24.148;2023-08-08T12:23:06;4.28;;;1.77;;
48596;SDS011;34382;43.160;24.148;2023-08-08T12:24:38;4.70;;;2.20;;
48596;SDS011;34382;43.160;24.148;2023-08-08T12:26:11;2.88;;;1.70;;
48596;SDS011;34382;43.160;24.148;2023-08-08T12:27:45;5.63;;;2.37;;
48596;SDS011;34382;43.160;24.148;2023-08-08T12:29:20;5.55;;;2.35;;
48596;SDS011;34382;43.160;24.148;2023-08-08T12:30:52;6.40;;;2.40;;
48596;SDS011;34382;43.160;24.148;2023-08-08T12:37:20;4.35;;;1.90;;
48596;SDS011;34382;43.160;24.148;2023-08-08T12:38:52;4.77;;;2.40;;
48596;SDS011;34382;43.160;24.148;2023-08-08T12:40:24;4.25;;;1.90;;
48596;SDS011;34382;43.160;24.148;2023-08-08T12:41:57;5.03;;;1.80;;
48596;SDS011;34382;43.160;24.148;2023-08-08T12:43:29;4.03;;;2.00;;
48596;SDS011;34382;43.160;24.148;2023-08-08T12:45:02;3.35;;;1.80;;
48596;SDS011;34382;43.160;24.148;2023-08-08T12:48:07;3.53;;;1.88;;
48596;SDS011;34382;43.160;24.148;2023-08-08T13:09:44;4.07;;;1.80;;
48596;SDS011;34382;43.160;24.148;2023-08-08T13:11:16;2.90;;;1.70;;
48596;SDS011;34382;43.160;24.148;2023-08-08T13:12:48;4.45;;;1.70;;
48596;SDS011;34382;43.160;24.148;2023-08-08T13:14:20;2.90;;;1.70;;
48596;SDS011;34382;43.160;24.148;2023-08-08T13:15:53;3.23;;;1.80;;
48596;SDS011;34382;43.160;24.148;2023-08-08T13:17:25;2.38;;;1.40;;
48596;SDS011;34382;43.160;24.148;2023-08-08T13:18:57;3.83;;;1.60;;